createdAt,value
2022-08-26T00:00:50.080Z,23.70
2022-08-26T00:06:56.567Z,23.70
2022-08-26T00:12:58.755Z,23.80
2022-08-26T00:19:01.049Z,23.70
2022-08-26T00:25:04.235Z,23.80
2022-08-26T00:31:07.213Z,23.90
2022-08-26T00:37:13.397Z,23.80
2022-08-26T00:43:18.390Z,23.70
2022-08-26T00:49:36.656Z,23.50
2022-08-26T00:55:41.628Z,23.30
2022-08-26T01:01:47.553Z,23.10
2022-08-26T01:07:50.073Z,23.10
2022-08-26T01:13:56.455Z,22.90
2022-08-26T01:20:19.139Z,22.80
2022-08-26T01:26:35.377Z,22.70
2022-08-26T01:32:38.886Z,22.70
2022-08-26T01:38:41.329Z,22.70
2022-08-26T01:44:49.236Z,22.60
2022-08-26T01:50:52.963Z,22.60
2022-08-26T01:56:56.058Z,22.50
2022-08-26T02:03:17.366Z,22.50
2022-08-26T02:09:21.401Z,22.40
2022-08-26T02:15:23.559Z,22.40
2022-08-26T02:21:25.905Z,22.40
2022-08-26T02:27:33.930Z,22.40
2022-08-26T02:33:36.166Z,22.40
2022-08-26T02:39:40.213Z,22.30
2022-08-26T02:45:43.078Z,22.20
2022-08-26T02:51:45.978Z,22.10
2022-08-26T02:57:47.982Z,22.00
2022-08-26T03:03:50.762Z,22.00
2022-08-26T03:09:53.483Z,22.00
2022-08-26T03:15:56.723Z,21.90
2022-08-26T03:21:58.924Z,21.80
2022-08-26T03:28:00.928Z,21.80
2022-08-26T03:34:04.385Z,21.80
2022-08-26T03:40:10.558Z,21.60
2022-08-26T03:46:12.758Z,21.60
2022-08-26T03:52:18.810Z,21.60
2022-08-26T03:58:21.791Z,21.60
2022-08-26T04:04:24.554Z,21.60
2022-08-26T04:10:29.053Z,21.60
2022-08-26T04:16:33.343Z,21.50
2022-08-26T04:22:35.591Z,21.60
2022-08-26T04:28:37.718Z,21.50
2022-08-26T04:34:40.084Z,21.40
2022-08-26T04:40:47.606Z,21.40
2022-08-26T04:46:49.967Z,21.40
2022-08-26T04:52:52.256Z,21.30
2022-08-26T04:58:54.543Z,21.30
2022-08-26T05:04:56.384Z,21.30
2022-08-26T05:10:59.327Z,21.30
2022-08-26T05:17:03.027Z,21.30
2022-08-26T05:23:05.130Z,21.40
2022-08-26T05:29:10.294Z,21.40
2022-08-26T05:35:12.374Z,21.40
2022-08-26T05:41:18.073Z,21.50
2022-08-26T05:47:20.097Z,21.50
2022-08-26T05:53:25.935Z,21.50
2022-08-26T05:59:29.356Z,21.50
2022-08-26T06:05:35.316Z,21.60
2022-08-26T06:11:40.518Z,21.70
2022-08-26T06:17:43.189Z,21.60
2022-08-26T06:24:05.928Z,21.70
2022-08-26T06:30:10.072Z,21.70
2022-08-26T06:36:40.406Z,21.70
2022-08-26T06:42:46.064Z,21.70
2022-08-26T06:48:48.905Z,21.80
2022-08-26T06:54:51.096Z,21.90
2022-08-26T07:00:53.101Z,21.80
2022-08-26T07:06:56.321Z,22.00
2022-08-26T07:12:58.433Z,22.30
2022-08-26T07:19:03.333Z,22.50
2022-08-26T07:25:08.159Z,22.60
2022-08-26T07:31:11.944Z,22.70
2022-08-26T07:37:14.937Z,22.80
2022-08-26T07:43:18.195Z,23.00
2022-08-26T07:49:22.085Z,23.10
2022-08-26T07:55:24.236Z,23.20
2022-08-26T08:01:33.120Z,23.30
2022-08-26T08:07:44.461Z,23.40
2022-08-26T08:13:48.545Z,23.50
2022-08-26T08:19:50.925Z,23.70
2022-08-26T08:26:01.795Z,23.90
2022-08-26T08:32:05.285Z,23.90
2022-08-26T08:38:07.414Z,24.10
2022-08-26T08:44:20.141Z,24.20
2022-08-26T08:50:33.984Z,24.40
2022-08-26T08:56:40.703Z,24.60
2022-08-26T09:03:01.795Z,24.70
2022-08-26T09:09:05.042Z,24.70
2022-08-26T09:15:32.163Z,24.70
2022-08-26T09:21:34.653Z,24.90
2022-08-26T09:27:37.690Z,25.00
2022-08-26T09:33:40.822Z,25.00
2022-08-26T09:39:42.893Z,25.20
2022-08-26T09:45:50.128Z,25.30
2022-08-26T09:52:23.843Z,25.20
2022-08-26T09:58:36.546Z,25.50
2022-08-26T10:04:40.179Z,25.90
2022-08-26T10:10:45.352Z,26.10
2022-08-26T10:16:56.917Z,26.30
2022-08-26T10:23:14.074Z,26.70
2022-08-26T10:29:29.401Z,26.90
2022-08-26T10:35:35.494Z,26.90
2022-08-26T10:41:43.394Z,26.90
2022-08-26T10:48:03.385Z,27.00
2022-08-26T10:54:22.779Z,27.10
2022-08-26T11:00:58.438Z,27.20
2022-08-26T11:07:29.515Z,27.40
2022-08-26T11:14:06.750Z,27.50
2022-08-26T11:20:13.676Z,27.20
2022-08-26T11:26:36.147Z,26.90
2022-08-26T11:32:41.950Z,26.80
2022-08-26T11:38:45.125Z,26.40
2022-08-26T11:44:49.570Z,26.20
2022-08-26T11:51:00.989Z,26.70
2022-08-26T11:57:11.631Z,27.40
2022-08-26T12:03:25.685Z,28.10
2022-08-26T12:09:50.211Z,28.50
2022-08-26T12:15:55.775Z,28.50
2022-08-26T12:22:25.731Z,28.30
2022-08-26T12:28:30.740Z,28.60
2022-08-26T12:34:33.054Z,28.30
2022-08-26T12:40:41.288Z,28.80
2022-08-26T12:46:47.901Z,29.00
2022-08-26T12:52:59.211Z,29.20
2022-08-26T12:59:06.278Z,29.20
2022-08-26T13:05:18.939Z,29.20
2022-08-26T13:11:23.736Z,28.70
2022-08-26T13:17:32.464Z,29.00
2022-08-26T13:23:34.305Z,29.00
2022-08-26T13:29:36.459Z,29.30
2022-08-26T13:35:38.788Z,29.10
2022-08-26T13:41:40.934Z,28.80
2022-08-26T13:47:43.031Z,28.60
2022-08-26T13:53:45.072Z,28.10
2022-08-26T13:59:47.204Z,27.70
2022-08-26T14:05:49.124Z,27.70
2022-08-26T14:11:55.078Z,27.20
2022-08-26T14:17:57.503Z,27.20
2022-08-26T14:24:01.032Z,27.30
2022-08-26T14:30:03.554Z,27.30
2022-08-26T14:36:24.992Z,27.10
2022-08-26T14:42:31.504Z,26.90
2022-08-26T14:48:33.623Z,26.70
2022-08-26T14:54:35.905Z,26.60
2022-08-26T15:00:38.446Z,26.50
2022-08-26T15:06:41.382Z,25.90
2022-08-26T15:12:43.652Z,24.10
2022-08-26T15:18:45.457Z,22.50
2022-08-26T15:24:47.400Z,20.70
2022-08-26T15:30:54.109Z,20.10
2022-08-26T15:36:56.175Z,20.10
2022-08-26T15:43:17.785Z,20.10
2022-08-26T15:49:20.484Z,20.50
2022-08-26T15:55:23.648Z,20.60
2022-08-26T16:01:27.654Z,20.50
2022-08-26T16:07:31.426Z,20.60
2022-08-26T16:13:40.071Z,20.80
2022-08-26T16:19:42.702Z,20.70
2022-08-26T16:25:45.138Z,20.10
2022-08-26T16:31:47.755Z,20.30
2022-08-26T16:37:49.649Z,20.20
2022-08-26T16:43:52.357Z,20.50
2022-08-26T16:49:54.897Z,20.90
2022-08-26T16:55:57.114Z,21.40
2022-08-26T17:01:59.195Z,21.40
2022-08-26T17:08:02.906Z,21.80
2022-08-26T17:14:05.763Z,21.70
2022-08-26T17:20:11.417Z,21.70
2022-08-26T17:26:13.816Z,21.40
2022-08-26T17:32:15.946Z,21.60
2022-08-26T17:38:17.941Z,21.70
2022-08-26T17:44:20.144Z,21.80
2022-08-26T17:50:22.381Z,21.70
2022-08-26T17:56:29.488Z,21.70
2022-08-26T18:08:33.320Z,21.60
2022-08-26T18:14:36.229Z,21.50
2022-08-26T18:20:40.274Z,21.30
2022-08-26T18:26:48.532Z,21.30
2022-08-26T18:32:52.098Z,21.30
2022-08-26T18:38:54.614Z,21.40
2022-08-26T18:44:56.745Z,21.00
2022-08-26T18:51:02.128Z,21.00
2022-08-26T18:57:04.284Z,21.10
2022-08-26T19:03:18.436Z,21.20
2022-08-26T19:09:21.386Z,21.10
2022-08-26T19:15:23.462Z,21.10
2022-08-26T19:21:25.742Z,21.10
2022-08-26T19:27:28.024Z,20.90
2022-08-26T19:33:30.310Z,20.90
2022-08-26T19:39:32.279Z,21.00
2022-08-26T19:45:34.344Z,20.90
2022-08-26T19:51:36.898Z,20.90
2022-08-26T19:57:40.187Z,21.00
2022-08-26T20:03:43.729Z,20.70
2022-08-26T20:09:47.226Z,20.70
2022-08-26T20:15:49.320Z,20.50
2022-08-26T20:21:51.332Z,20.50
2022-08-26T20:27:53.085Z,20.50
2022-08-26T20:33:55.710Z,20.30
2022-08-26T20:39:57.579Z,20.30
2022-08-26T20:46:00.982Z,20.30
2022-08-26T20:52:05.513Z,20.20
2022-08-26T20:58:07.486Z,20.40
2022-08-26T21:04:14.056Z,20.40
2022-08-26T21:10:15.968Z,20.20
2022-08-26T21:16:19.656Z,20.20
2022-08-26T21:22:21.748Z,20.10
2022-08-26T21:28:23.606Z,20.20
2022-08-26T21:34:25.752Z,20.30
2022-08-26T21:40:27.936Z,20.30
2022-08-26T21:46:31.321Z,20.20
2022-08-26T21:52:33.569Z,20.10
2022-08-26T21:58:36.052Z,20.00
2022-08-26T22:04:38.291Z,20.00
2022-08-26T22:10:41.854Z,20.10
2022-08-26T22:16:48.969Z,20.20
2022-08-26T22:22:53.838Z,20.10
2022-08-26T22:28:58.617Z,20.10
2022-08-26T22:35:03.114Z,20.10
2022-08-26T22:41:26.316Z,19.90
2022-08-26T22:47:28.743Z,19.90
2022-08-26T22:53:30.691Z,19.90
2022-08-26T22:59:37.493Z,19.90
2022-08-26T23:05:40.469Z,19.90
2022-08-26T23:11:43.640Z,19.90
2022-08-26T23:17:46.304Z,19.90
2022-08-26T23:23:48.374Z,19.80
2022-08-26T23:29:50.360Z,19.60
2022-08-26T23:35:54.842Z,19.60
2022-08-26T23:41:58.268Z,19.60
2022-08-26T23:48:00.469Z,19.30
2022-08-26T23:54:02.399Z,19.30
